sensor_id;sensor_type;location;lat;lon;timestamp;P1;P2;P0
77777;PMS5003;66966;-34.746;138.604;2023-04-15T00:02:17;1;0;
77777;PMS5003;66966;-34.746;138.604;2023-04-15T00:04:42;0;0;
77777;PMS5003;66966;-34.746;138.604;2023-04-15T00:07:08;1;0;
77777;PMS5003;66966;-34.746;138.604;2023-04-15T00:09:33;1;0;
77777;PMS5003;66966;-34.746;138.604;2023-04-15T00:11:59;0;0;
77777;PMS5003;66966;-34.746;138.604;2023-04-15T00:14:25;0;0;
77777;PMS5003;66966;-34.746;138.604;2023-04-15T00:16:50;1;1;
77777;PMS5003;66966;-34.746;138.604;2023-04-15T00:19:15;2;1;
77777;PMS5003;66966;-34.746;138.604;2023-04-15T00:21:41;1;1;
77777;PMS5003;66966;-34.746;138.604;2023-04-15T00:24:06;1;0;
77777;PMS5003;66966;-34.746;138.604;2023-04-15T00:26:32;2;1;
77777;PMS5003;66966;-34.746;138.604;2023-04-15T00:28:57;2;1;
77777;PMS5003;66966;-34.746;138.604;2023-04-15T00:31:23;4;1;
77777;PMS5003;66966;-34.746;138.604;2023-04-15T00:33:48;1;0;
77777;PMS5003;66966;-34.746;138.604;2023-04-15T00:36:14;0;0;
77777;PMS5003;66966;-34.746;138.604;2023-04-15T00:38:39;2;1;
77777;PMS5003;66966;-34.746;138.604;2023-04-15T00:41:04;1;0;
77777;PMS5003;66966;-34.746;138.604;2023-04-15T00:43:30;3;0;
77777;PMS5003;66966;-34.746;138.604;2023-04-15T00:45:56;3;2;
77777;PMS5003;66966;-34.746;138.604;2023-04-15T00:48:21;0;0;
77777;PMS5003;66966;-34.746;138.604;2023-04-15T00:50:47;3;1;
77777;PMS5003;66966;-34.746;138.604;2023-04-15T00:53:12;0;0;
77777;PMS5003;66966;-34.746;138.604;2023-04-15T00:55:37;0;0;
77777;PMS5003;66966;-34.746;138.604;2023-04-15T00:58:03;1;0;
77777;PMS5003;66966;-34.746;138.604;2023-04-15T01:00:29;2;1;
77777;PMS5003;66966;-34.746;138.604;2023-04-15T01:02:54;1;1;
77777;PMS5003;66966;-34.746;138.604;2023-04-15T01:05:19;0;0;
77777;PMS5003;66966;-34.746;138.604;2023-04-15T01:07:46;2;1;
77777;PMS5003;66966;-34.746;138.604;2023-04-15T01:10:10;6;5;
77777;PMS5003;66966;-34.746;138.604;2023-04-15T01:12:36;8;7;
77777;PMS5003;66966;-34.746;138.604;2023-04-15T01:15:02;7;6;
77777;PMS5003;66966;-34.746;138.604;2023-04-15T01:17:27;5;4;
77777;PMS5003;66966;-34.746;138.604;2023-04-15T01:19:52;3;1;
77777;PMS5003;66966;-34.746;138.604;2023-04-15T01:22:18;4;1;
77777;PMS5003;66966;-34.746;138.604;2023-04-15T01:24:43;1;1;
77777;PMS5003;66966;-34.746;138.604;2023-04-15T01:27:10;2;2;
77777;PMS5003;66966;-34.746;138.604;2023-04-15T01:29:36;4;2;
77777;PMS5003;66966;-34.746;138.604;2023-04-15T01:32:00;4;3;
77777;PMS5003;66966;-34.746;138.604;2023-04-15T01:34:25;6;6;
77777;PMS5003;66966;-34.746;138.604;2023-04-15T01:36:51;5;5;
77777;PMS5003;66966;-34.746;138.604;2023-04-15T01:39:17;6;4;
77777;PMS5003;66966;-34.746;138.604;2023-04-15T01:41:42;4;3;
77777;PMS5003;66966;-34.746;138.604;2023-04-15T01:44:07;2;2;
77777;PMS5003;66966;-34.746;138.604;2023-04-15T01:46:33;4;3;
77777;PMS5003;66966;-34.746;138.604;2023-04-15T01:48:58;6;5;
77777;PMS5003;66966;-34.746;138.604;2023-04-15T01:51:24;16;14;
77777;PMS5003;66966;-34.746;138.604;2023-04-15T01:53:49;8;7;
77777;PMS5003;66966;-34.746;138.604;2023-04-15T01:56:14;8;8;
77777;PMS5003;66966;-34.746;138.604;2023-04-15T01:58:40;10;9;
77777;PMS5003;66966;-34.746;138.604;2023-04-15T02:01:05;4;4;
77777;PMS5003;66966;-34.746;138.604;2023-04-15T02:03:31;6;4;
77777;PMS5003;66966;-34.746;138.604;2023-04-15T02:05:56;4;2;
77777;PMS5003;66966;-34.746;138.604;2023-04-15T02:08:22;9;7;
77777;PMS5003;66966;-34.746;138.604;2023-04-15T02:10:47;9;7;
77777;PMS5003;66966;-34.746;138.604;2023-04-15T02:13:12;5;4;
77777;PMS5003;66966;-34.746;138.604;2023-04-15T02:15:39;7;6;
77777;PMS5003;66966;-34.746;138.604;2023-04-15T02:18:04;5;4;
77777;PMS5003;66966;-34.746;138.604;2023-04-15T02:20:29;2;2;
77777;PMS5003;66966;-34.746;138.604;2023-04-15T02:22:55;6;5;
77777;PMS5003;66966;-34.746;138.604;2023-04-15T02:25:20;6;4;
77777;PMS5003;66966;-34.746;138.604;2023-04-15T02:27:46;11;10;
77777;PMS5003;66966;-34.746;138.604;2023-04-15T02:30:11;6;6;
77777;PMS5003;66966;-34.746;138.604;2023-04-15T02:32:36;7;6;
77777;PMS5003;66966;-34.746;138.604;2023-04-15T02:35:02;2;2;
77777;PMS5003;66966;-34.746;138.604;2023-04-15T02:37:27;3;0;
77777;PMS5003;66966;-34.746;138.604;2023-04-15T02:39:53;1;1;
77777;PMS5003;66966;-34.746;138.604;2023-04-15T02:42:18;1;1;
77777;PMS5003;66966;-34.746;138.604;2023-04-15T02:44:43;3;2;
77777;PMS5003;66966;-34.746;138.604;2023-04-15T02:47:09;1;1;
77777;PMS5003;66966;-34.746;138.604;2023-04-15T02:49:34;0;0;
77777;PMS5003;66966;-34.746;138.604;2023-04-15T02:52:00;3;0;
77777;PMS5003;66966;-34.746;138.604;2023-04-15T02:54:25;0;0;
77777;PMS5003;66966;-34.746;138.604;2023-04-15T02:56:51;1;1;
77777;PMS5003;66966;-34.746;138.604;2023-04-15T02:59:16;2;2;
77777;PMS5003;66966;-34.746;138.604;2023-04-15T03:01:42;0;0;
77777;PMS5003;66966;-34.746;138.604;2023-04-15T03:04:08;0;0;
77777;PMS5003;66966;-34.746;138.604;2023-04-15T03:06:33;1;0;
77777;PMS5003;66966;-34.746;138.604;2023-04-15T03:08:58;2;2;
77777;PMS5003;66966;-34.746;138.604;2023-04-15T03:11:24;2;2;
77777;PMS5003;66966;-34.746;138.604;2023-04-15T03:13:49;0;0;
77777;PMS5003;66966;-34.746;138.604;2023-04-15T03:16:15;4;3;
77777;PMS5003;66966;-34.746;138.604;2023-04-15T03:18:40;8;8;
77777;PMS5003;66966;-34.746;138.604;2023-04-15T03:21:06;5;4;
77777;PMS5003;66966;-34.746;138.604;2023-04-15T03:23:31;3;1;
77777;PMS5003;66966;-34.746;138.604;2023-04-15T03:25:56;2;1;
77777;PMS5003;66966;-34.746;138.604;2023-04-15T03:28:22;2;2;
77777;PMS5003;66966;-34.746;138.604;2023-04-15T03:30:47;2;2;
77777;PMS5003;66966;-34.746;138.604;2023-04-15T03:33:13;4;4;
77777;PMS5003;66966;-34.746;138.604;2023-04-15T03:35:38;2;2;
77777;PMS5003;66966;-34.746;138.604;2023-04-15T03:38:04;2;1;
77777;PMS5003;66966;-34.746;138.604;2023-04-15T03:40:30;0;0;
77777;PMS5003;66966;-34.746;138.604;2023-04-15T03:42:55;1;1;
77777;PMS5003;66966;-34.746;138.604;2023-04-15T03:45:20;1;0;
77777;PMS5003;66966;-34.746;138.604;2023-04-15T03:47:46;2;1;
77777;PMS5003;66966;-34.746;138.604;2023-04-15T03:50:11;0;0;
77777;PMS5003;66966;-34.746;138.604;2023-04-15T03:52:37;2;1;
77777;PMS5003;66966;-34.746;138.604;2023-04-15T03:55:02;0;0;
77777;PMS5003;66966;-34.746;138.604;2023-04-15T03:57:27;0;0;
77777;PMS5003;66966;-34.746;138.604;2023-04-15T03:59:53;2;1;
77777;PMS5003;66966;-34.746;138.604;2023-04-15T04:02:18;0;0;
77777;PMS5003;66966;-34.746;138.604;2023-04-15T04:04:44;0;0;
77777;PMS5003;66966;-34.746;138.604;2023-04-15T04:09:35;0;0;
77777;PMS5003;66966;-34.746;138.604;2023-04-15T04:12:00;2;0;
77777;PMS5003;66966;-34.746;138.604;2023-04-15T04:14:25;1;0;
77777;PMS5003;66966;-34.746;138.604;2023-04-15T04:16:51;2;1;
77777;PMS5003;66966;-34.746;138.604;2023-04-15T04:19:16;1;0;
77777;PMS5003;66966;-34.746;138.604;2023-04-15T04:21:42;1;1;
77777;PMS5003;66966;-34.746;138.604;2023-04-15T04:24:07;1;0;
77777;PMS5003;66966;-34.746;138.604;2023-04-15T04:26:33;0;0;
77777;PMS5003;66966;-34.746;138.604;2023-04-15T04:28:58;2;0;
77777;PMS5003;66966;-34.746;138.604;2023-04-15T04:31:23;2;2;
77777;PMS5003;66966;-34.746;138.604;2023-04-15T04:33:49;2;1;
77777;PMS5003;66966;-34.746;138.604;2023-04-15T04:36:14;2;0;
77777;PMS5003;66966;-34.746;138.604;2023-04-15T04:38:40;2;1;
77777;PMS5003;66966;-34.746;138.604;2023-04-15T04:41:05;1;1;
77777;PMS5003;66966;-34.746;138.604;2023-04-15T04:43:30;0;0;
77777;PMS5003;66966;-34.746;138.604;2023-04-15T04:45:56;1;0;
77777;PMS5003;66966;-34.746;138.604;2023-04-15T04:48:21;0;0;
77777;PMS5003;66966;-34.746;138.604;2023-04-15T04:50:46;1;0;
77777;PMS5003;66966;-34.746;138.604;2023-04-15T04:53:12;1;1;
77777;PMS5003;66966;-34.746;138.604;2023-04-15T04:55:37;2;0;
77777;PMS5003;66966;-34.746;138.604;2023-04-15T04:58:02;0;0;
77777;PMS5003;66966;-34.746;138.604;2023-04-15T05:00:28;1;1;
77777;PMS5003;66966;-34.746;138.604;2023-04-15T05:02:53;1;0;
77777;PMS5003;66966;-34.746;138.604;2023-04-15T05:05:19;1;1;
77777;PMS5003;66966;-34.746;138.604;2023-04-15T05:07:44;0;0;
77777;PMS5003;66966;-34.746;138.604;2023-04-15T05:10:09;0;0;
77777;PMS5003;66966;-34.746;138.604;2023-04-15T05:12:35;1;1;
77777;PMS5003;66966;-34.746;138.604;2023-04-15T05:15:00;0;0;
77777;PMS5003;66966;-34.746;138.604;2023-04-15T05:17:26;1;0;
77777;PMS5003;66966;-34.746;138.604;2023-04-15T05:19:51;1;1;
77777;PMS5003;66966;-34.746;138.604;2023-04-15T05:22:16;2;1;
77777;PMS5003;66966;-34.746;138.604;2023-04-15T05:24:42;1;0;
77777;PMS5003;66966;-34.746;138.604;2023-04-15T05:27:07;1;0;
77777;PMS5003;66966;-34.746;138.604;2023-04-15T05:29:33;3;1;
77777;PMS5003;66966;-34.746;138.604;2023-04-15T05:31:58;0;0;
77777;PMS5003;66966;-34.746;138.604;2023-04-15T05:34:24;0;0;
77777;PMS5003;66966;-34.746;138.604;2023-04-15T05:36:49;0;0;
77777;PMS5003;66966;-34.746;138.604;2023-04-15T05:39:14;1;1;
77777;PMS5003;66966;-34.746;138.604;2023-04-15T05:41:40;1;0;
77777;PMS5003;66966;-34.746;138.604;2023-04-15T05:44:05;0;0;
77777;PMS5003;66966;-34.746;138.604;2023-04-15T05:46:31;1;0;
77777;PMS5003;66966;-34.746;138.604;2023-04-15T05:48:56;0;0;
77777;PMS5003;66966;-34.746;138.604;2023-04-15T05:51:22;0;0;
77777;PMS5003;66966;-34.746;138.604;2023-04-15T05:53:47;0;0;
77777;PMS5003;66966;-34.746;138.604;2023-04-15T05:56:13;1;1;
77777;PMS5003;66966;-34.746;138.604;2023-04-15T05:58:38;1;1;
77777;PMS5003;66966;-34.746;138.604;2023-04-15T06:01:03;0;0;
77777;PMS5003;66966;-34.746;138.604;2023-04-15T06:03:29;1;0;
77777;PMS5003;66966;-34.746;138.604;2023-04-15T06:05:55;1;1;
77777;PMS5003;66966;-34.746;138.604;2023-04-15T06:08:20;0;0;
77777;PMS5003;66966;-34.746;138.604;2023-04-15T06:10:45;1;0;
77777;PMS5003;66966;-34.746;138.604;2023-04-15T06:13:11;1;0;
77777;PMS5003;66966;-34.746;138.604;2023-04-15T06:15:36;0;0;
77777;PMS5003;66966;-34.746;138.604;2023-04-15T06:18:02;0;0;
77777;PMS5003;66966;-34.746;138.604;2023-04-15T06:20:27;0;0;
77777;PMS5003;66966;-34.746;138.604;2023-04-15T06:22:53;0;0;
77777;PMS5003;66966;-34.746;138.604;2023-04-15T06:25:18;0;0;
77777;PMS5003;66966;-34.746;138.604;2023-04-15T06:27:44;0;0;
77777;PMS5003;66966;-34.746;138.604;2023-04-15T06:30:10;1;1;
77777;PMS5003;66966;-34.746;138.604;2023-04-15T06:32:35;1;0;
77777;PMS5003;66966;-34.746;138.604;2023-04-15T06:35:00;0;0;
77777;PMS5003;66966;-34.746;138.604;2023-04-15T06:37:25;1;1;
77777;PMS5003;66966;-34.746;138.604;2023-04-15T06:39:51;2;1;
77777;PMS5003;66966;-34.746;138.604;2023-04-15T06:42:17;0;0;
77777;PMS5003;66966;-34.746;138.604;2023-04-15T06:44:42;0;0;
77777;PMS5003;66966;-34.746;138.604;2023-04-15T06:47:07;1;0;
77777;PMS5003;66966;-34.746;138.604;2023-04-15T06:49:33;0;0;
77777;PMS5003;66966;-34.746;138.604;2023-04-15T06:51:58;0;0;
77777;PMS5003;66966;-34.746;138.604;2023-04-15T06:54:24;0;0;
77777;PMS5003;66966;-34.746;138.604;2023-04-15T06:56:49;1;0;
77777;PMS5003;66966;-34.746;138.604;2023-04-15T06:59:14;1;0;
77777;PMS5003;66966;-34.746;138.604;2023-04-15T07:01:40;1;1;
77777;PMS5003;66966;-34.746;138.604;2023-04-15T07:04:05;1;0;
77777;PMS5003;66966;-34.746;138.604;2023-04-15T07:06:31;1;0;
77777;PMS5003;66966;-34.746;138.604;2023-04-15T07:08:56;1;1;
77777;PMS5003;66966;-34.746;138.604;2023-04-15T07:11:22;0;0;
77777;PMS5003;66966;-34.746;138.604;2023-04-15T07:13:47;1;1;
77777;PMS5003;66966;-34.746;138.604;2023-04-15T07:16:12;0;0;
77777;PMS5003;66966;-34.746;138.604;2023-04-15T07:18:38;0;0;
77777;PMS5003;66966;-34.746;138.604;2023-04-15T07:21:03;0;0;
77777;PMS5003;66966;-34.746;138.604;2023-04-15T07:23:28;2;2;
77777;PMS5003;66966;-34.746;138.604;2023-04-15T07:25:54;0;0;
77777;PMS5003;66966;-34.746;138.604;2023-04-15T07:28:19;0;0;
77777;PMS5003;66966;-34.746;138.604;2023-04-15T07:30:45;1;1;
77777;PMS5003;66966;-34.746;138.604;2023-04-15T07:33:10;0;0;
77777;PMS5003;66966;-34.746;138.604;2023-04-15T07:35:36;1;0;
77777;PMS5003;66966;-34.746;138.604;2023-04-15T07:38:01;0;0;
77777;PMS5003;66966;-34.746;138.604;2023-04-15T07:40:27;0;0;
77777;PMS5003;66966;-34.746;138.604;2023-04-15T07:42:53;0;0;
77777;PMS5003;66966;-34.746;138.604;2023-04-15T07:45:18;0;0;
77777;PMS5003;66966;-34.746;138.604;2023-04-15T07:47:43;1;1;
77777;PMS5003;66966;-34.746;138.604;2023-04-15T07:50:09;0;0;
77777;PMS5003;66966;-34.746;138.604;2023-04-15T07:52:34;0;0;
77777;PMS5003;66966;-34.746;138.604;2023-04-15T07:55:00;0;0;
77777;PMS5003;66966;-34.746;138.604;2023-04-15T07:57:26;1;1;
77777;PMS5003;66966;-34.746;138.604;2023-04-15T07:59:51;0;0;
77777;PMS5003;66966;-34.746;138.604;2023-04-15T08:02:18;0;0;
77777;PMS5003;66966;-34.746;138.604;2023-04-15T08:04:43;2;1;
77777;PMS5003;66966;-34.746;138.604;2023-04-15T08:07:08;1;1;
77777;PMS5003;66966;-34.746;138.604;2023-04-15T08:09:33;0;0;
77777;PMS5003;66966;-34.746;138.604;2023-04-15T08:11:59;0;0;
77777;PMS5003;66966;-34.746;138.604;2023-04-15T08:14:25;2;2;
77777;PMS5003;66966;-34.746;138.604;2023-04-15T08:16:50;5;5;
77777;PMS5003;66966;-34.746;138.604;2023-04-15T08:19:17;6;5;
77777;PMS5003;66966;-34.746;138.604;2023-04-15T08:21:41;3;3;
77777;PMS5003;66966;-34.746;138.604;2023-04-15T08:24:07;3;1;
77777;PMS5003;66966;-34.746;138.604;2023-04-15T08:26:32;1;1;
77777;PMS5003;66966;-34.746;138.604;2023-04-15T08:28:59;1;1;
77777;PMS5003;66966;-34.746;138.604;2023-04-15T08:31:25;1;1;
77777;PMS5003;66966;-34.746;138.604;2023-04-15T08:33:49;0;0;
77777;PMS5003;66966;-34.746;138.604;2023-04-15T08:36:14;2;1;
77777;PMS5003;66966;-34.746;138.604;2023-04-15T08:38:40;3;1;
77777;PMS5003;66966;-34.746;138.604;2023-04-15T08:41:08;3;1;
77777;PMS5003;66966;-34.746;138.604;2023-04-15T08:43:32;3;2;
77777;PMS5003;66966;-34.746;138.604;2023-04-15T08:45:56;3;2;
77777;PMS5003;66966;-34.746;138.604;2023-04-15T08:48:22;4;2;
77777;PMS5003;66966;-34.746;138.604;2023-04-15T08:50:48;2;1;
77777;PMS5003;66966;-34.746;138.604;2023-04-15T08:53:14;0;0;
77777;PMS5003;66966;-34.746;138.604;2023-04-15T08:55:41;2;1;
77777;PMS5003;66966;-34.746;138.604;2023-04-15T08:58:05;2;2;
77777;PMS5003;66966;-34.746;138.604;2023-04-15T09:00:30;1;0;
77777;PMS5003;66966;-34.746;138.604;2023-04-15T09:02:56;2;0;
77777;PMS5003;66966;-34.746;138.604;2023-04-15T09:05:22;2;0;
77777;PMS5003;66966;-34.746;138.604;2023-04-15T09:07:47;1;0;
77777;PMS5003;66966;-34.746;138.604;2023-04-15T09:10:12;0;0;
77777;PMS5003;66966;-34.746;138.604;2023-04-15T09:12:38;0;0;
77777;PMS5003;66966;-34.746;138.604;2023-04-15T09:15:04;0;0;
77777;PMS5003;66966;-34.746;138.604;2023-04-15T09:17:31;1;1;
77777;PMS5003;66966;-34.746;138.604;2023-04-15T09:22:20;1;1;
77777;PMS5003;66966;-34.746;138.604;2023-04-15T09:24:46;1;0;
77777;PMS5003;66966;-34.746;138.604;2023-04-15T09:27:12;1;1;
77777;PMS5003;66966;-34.746;138.604;2023-04-15T09:29:38;2;1;
77777;PMS5003;66966;-34.746;138.604;2023-04-15T09:32:11;0;0;
77777;PMS5003;66966;-34.746;138.604;2023-04-15T09:36:55;0;0;
77777;PMS5003;66966;-34.746;138.604;2023-04-15T09:39:20;0;0;
77777;PMS5003;66966;-34.746;138.604;2023-04-15T09:41:47;4;0;
77777;PMS5003;66966;-34.746;138.604;2023-04-15T09:46:42;0;0;
77777;PMS5003;66966;-34.746;138.604;2023-04-15T09:53:54;0;0;
77777;PMS5003;66966;-34.746;138.604;2023-04-15T09:56:19;0;0;
77777;PMS5003;66966;-34.746;138.604;2023-04-15T09:58:45;0;0;
77777;PMS5003;66966;-34.746;138.604;2023-04-15T10:01:11;0;0;
77777;PMS5003;66966;-34.746;138.604;2023-04-15T10:03:36;0;0;
77777;PMS5003;66966;-34.746;138.604;2023-04-15T10:06:02;0;0;
77777;PMS5003;66966;-34.746;138.604;2023-04-15T10:08:28;1;1;
77777;PMS5003;66966;-34.746;138.604;2023-04-15T10:10:54;1;0;
77777;PMS5003;66966;-34.746;138.604;2023-04-15T10:13:23;1;0;
77777;PMS5003;66966;-34.746;138.604;2023-04-15T10:15:44;0;0;
77777;PMS5003;66966;-34.746;138.604;2023-04-15T10:18:12;1;0;
77777;PMS5003;66966;-34.746;138.604;2023-04-15T10:20:35;0;0;
77777;PMS5003;66966;-34.746;138.604;2023-04-15T10:23:04;0;0;
77777;PMS5003;66966;-34.746;138.604;2023-04-15T10:25:27;0;0;
77777;PMS5003;66966;-34.746;138.604;2023-04-15T10:27:52;0;0;
77777;PMS5003;66966;-34.746;138.604;2023-04-15T10:30:19;2;0;
77777;PMS5003;66966;-34.746;138.604;2023-04-15T10:32:44;1;1;
77777;PMS5003;66966;-34.746;138.604;2023-04-15T10:35:10;0;0;
77777;PMS5003;66966;-34.746;138.604;2023-04-15T10:37:35;0;0;
77777;PMS5003;66966;-34.746;138.604;2023-04-15T10:40:01;0;0;
77777;PMS5003;66966;-34.746;138.604;2023-04-15T10:42:32;0;0;
77777;PMS5003;66966;-34.746;138.604;2023-04-15T10:44:55;0;0;
77777;PMS5003;66966;-34.746;138.604;2023-04-15T10:47:18;0;0;
77777;PMS5003;66966;-34.746;138.604;2023-04-15T10:49:44;0;0;
77777;PMS5003;66966;-34.746;138.604;2023-04-15T10:52:09;0;0;
77777;PMS5003;66966;-34.746;138.604;2023-04-15T10:54:38;1;0;
77777;PMS5003;66966;-34.746;138.604;2023-04-15T10:59:27;0;0;
77777;PMS5003;66966;-34.746;138.604;2023-04-15T11:01:52;0;0;
77777;PMS5003;66966;-34.746;138.604;2023-04-15T11:06:44;0;0;
77777;PMS5003;66966;-34.746;138.604;2023-04-15T11:09:14;0;0;
77777;PMS5003;66966;-34.746;138.604;2023-04-15T11:14:01;0;0;
77777;PMS5003;66966;-34.746;138.604;2023-04-15T11:16:25;1;0;
77777;PMS5003;66966;-34.746;138.604;2023-04-15T11:18:54;1;0;
77777;PMS5003;66966;-34.746;138.604;2023-04-15T11:21:16;1;1;
77777;PMS5003;66966;-34.746;138.604;2023-04-15T11:23:42;1;0;
77777;PMS5003;66966;-34.746;138.604;2023-04-15T11:26:08;0;0;
77777;PMS5003;66966;-34.746;138.604;2023-04-15T11:28:34;0;0;
77777;PMS5003;66966;-34.746;138.604;2023-04-15T11:33:24;0;0;
77777;PMS5003;66966;-34.746;138.604;2023-04-15T11:35:52;1;0;
77777;PMS5003;66966;-34.746;138.604;2023-04-15T11:38:15;0;0;
77777;PMS5003;66966;-34.746;138.604;2023-04-15T11:40:41;0;0;
77777;PMS5003;66966;-34.746;138.604;2023-04-15T11:43:08;4;1;
77777;PMS5003;66966;-34.746;138.604;2023-04-15T11:45:32;0;0;
77777;PMS5003;66966;-34.746;138.604;2023-04-15T11:50:23;1;0;
77777;PMS5003;66966;-34.746;138.604;2023-04-15T11:52:53;1;1;
77777;PMS5003;66966;-34.746;138.604;2023-04-15T11:55:18;0;0;
77777;PMS5003;66966;-34.746;138.604;2023-04-15T11:57:41;1;0;
77777;PMS5003;66966;-34.746;138.604;2023-04-15T12:00:07;0;0;
77777;PMS5003;66966;-34.746;138.604;2023-04-15T12:02:35;0;0;
77777;PMS5003;66966;-34.746;138.604;2023-04-15T12:07:24;0;0;
77777;PMS5003;66966;-34.746;138.604;2023-04-15T12:12:14;1;0;
77777;PMS5003;66966;-34.746;138.604;2023-04-15T12:14:41;1;1;
77777;PMS5003;66966;-34.746;138.604;2023-04-15T12:17:05;1;0;
77777;PMS5003;66966;-34.746;138.604;2023-04-15T12:19:34;0;0;
77777;PMS5003;66966;-34.746;138.604;2023-04-15T12:21:58;0;0;
77777;PMS5003;66966;-34.746;138.604;2023-04-15T12:24:22;0;0;
77777;PMS5003;66966;-34.746;138.604;2023-04-15T12:26:48;0;0;
77777;PMS5003;66966;-34.746;138.604;2023-04-15T12:29:14;0;0;
77777;PMS5003;66966;-34.746;138.604;2023-04-15T12:34:08;2;1;
77777;PMS5003;66966;-34.746;138.604;2023-04-15T12:36:31;0;0;
77777;PMS5003;66966;-34.746;138.604;2023-04-15T12:38:55;0;0;
77777;PMS5003;66966;-34.746;138.604;2023-04-15T12:41:22;0;0;
77777;PMS5003;66966;-34.746;138.604;2023-04-15T12:43:47;1;0;
77777;PMS5003;66966;-34.746;138.604;2023-04-15T12:46:13;0;0;
77777;PMS5003;66966;-34.746;138.604;2023-04-15T12:48:37;0;0;
77777;PMS5003;66966;-34.746;138.604;2023-04-15T12:51:03;0;0;
77777;PMS5003;66966;-34.746;138.604;2023-04-15T12:53:31;0;0;
77777;PMS5003;66966;-34.746;138.604;2023-04-15T12:55:55;0;0;
77777;PMS5003;66966;-34.746;138.604;2023-04-15T12:58:20;0;0;
77777;PMS5003;66966;-34.746;138.604;2023-04-15T13:00:45;0;0;
77777;PMS5003;66966;-34.746;138.604;2023-04-15T13:03:11;0;0;
77777;PMS5003;66966;-34.746;138.604;2023-04-15T13:05:38;0;0;
77777;PMS5003;66966;-34.746;138.604;2023-04-15T13:08:02;1;0;
77777;PMS5003;66966;-34.746;138.604;2023-04-15T13:10:28;0;0;
77777;PMS5003;66966;-34.746;138.604;2023-04-15T13:12:54;0;0;
77777;PMS5003;66966;-34.746;138.604;2023-04-15T13:15:19;0;0;
77777;PMS5003;66966;-34.746;138.604;2023-04-15T13:17:46;1;0;
77777;PMS5003;66966;-34.746;138.604;2023-04-15T13:20:10;1;0;
77777;PMS5003;66966;-34.746;138.604;2023-04-15T13:22:36;0;0;
77777;PMS5003;66966;-34.746;138.604;2023-04-15T13:25:02;0;0;
77777;PMS5003;66966;-34.746;138.604;2023-04-15T13:27:28;1;0;
77777;PMS5003;66966;-34.746;138.604;2023-04-15T13:29:53;1;0;
77777;PMS5003;66966;-34.746;138.604;2023-04-15T13:32:18;1;0;
77777;PMS5003;66966;-34.746;138.604;2023-04-15T13:34:44;2;1;
77777;PMS5003;66966;-34.746;138.604;2023-04-15T13:37:10;1;0;
77777;PMS5003;66966;-34.746;138.604;2023-04-15T13:39:35;0;0;
77777;PMS5003;66966;-34.746;138.604;2023-04-15T13:42:02;0;0;
77777;PMS5003;66966;-34.746;138.604;2023-04-15T13:44:26;2;2;
77777;PMS5003;66966;-34.746;138.604;2023-04-15T13:46:52;4;3;
77777;PMS5003;66966;-34.746;138.604;2023-04-15T13:49:17;0;0;
77777;PMS5003;66966;-34.746;138.604;2023-04-15T13:51:43;0;0;
77777;PMS5003;66966;-34.746;138.604;2023-04-15T13:54:09;1;0;
77777;PMS5003;66966;-34.746;138.604;2023-04-15T13:56:34;0;0;
77777;PMS5003;66966;-34.746;138.604;2023-04-15T13:59:00;1;0;
77777;PMS5003;66966;-34.746;138.604;2023-04-15T14:01:25;0;0;
77777;PMS5003;66966;-34.746;138.604;2023-04-15T14:03:51;0;0;
77777;PMS5003;66966;-34.746;138.604;2023-04-15T14:06:17;0;0;
77777;PMS5003;66966;-34.746;138.604;2023-04-15T14:08:42;0;0;
77777;PMS5003;66966;-34.746;138.604;2023-04-15T14:11:08;1;0;
77777;PMS5003;66966;-34.746;138.604;2023-04-15T14:13:34;1;0;
77777;PMS5003;66966;-34.746;138.604;2023-04-15T14:15:59;0;0;
77777;PMS5003;66966;-34.746;138.604;2023-04-15T14:18:25;0;0;
77777;PMS5003;66966;-34.746;138.604;2023-04-15T14:20:51;0;0;
77777;PMS5003;66966;-34.746;138.604;2023-04-15T14:23:16;1;0;
77777;PMS5003;66966;-34.746;138.604;2023-04-15T14:25:42;0;0;
77777;PMS5003;66966;-34.746;138.604;2023-04-15T14:28:08;0;0;
77777;PMS5003;66966;-34.746;138.604;2023-04-15T14:30:34;1;0;
77777;PMS5003;66966;-34.746;138.604;2023-04-15T14:32:59;0;0;
77777;PMS5003;66966;-34.746;138.604;2023-04-15T14:35:24;0;0;
77777;PMS5003;66966;-34.746;138.604;2023-04-15T14:37:50;0;0;
77777;PMS5003;66966;-34.746;138.604;2023-04-15T14:40:16;0;0;
77777;PMS5003;66966;-34.746;138.604;2023-04-15T14:42:42;1;1;
77777;PMS5003;66966;-34.746;138.604;2023-04-15T14:45:08;0;0;
77777;PMS5003;66966;-34.746;138.604;2023-04-15T14:47:33;1;0;
77777;PMS5003;66966;-34.746;138.604;2023-04-15T14:49:58;0;0;
77777;PMS5003;66966;-34.746;138.604;2023-04-15T14:52:24;0;0;
77777;PMS5003;66966;-34.746;138.604;2023-04-15T14:54:50;1;0;
77777;PMS5003;66966;-34.746;138.604;2023-04-15T14:57:15;0;0;
77777;PMS5003;66966;-34.746;138.604;2023-04-15T14:59:42;0;0;
77777;PMS5003;66966;-34.746;138.604;2023-04-15T15:02:07;1;1;
77777;PMS5003;66966;-34.746;138.604;2023-04-15T15:04:32;0;0;
77777;PMS5003;66966;-34.746;138.604;2023-04-15T15:06:59;0;0;
77777;PMS5003;66966;-34.746;138.604;2023-04-15T15:09:23;0;0;
77777;PMS5003;66966;-34.746;138.604;2023-04-15T15:11:49;0;0;
77777;PMS5003;66966;-34.746;138.604;2023-04-15T15:14:15;0;0;
77777;PMS5003;66966;-34.746;138.604;2023-04-15T15:16:41;0;0;
77777;PMS5003;66966;-34.746;138.604;2023-04-15T15:19:06;1;1;
77777;PMS5003;66966;-34.746;138.604;2023-04-15T15:21:32;1;1;
77777;PMS5003;66966;-34.746;138.604;2023-04-15T15:23:57;0;0;
77777;PMS5003;66966;-34.746;138.604;2023-04-15T15:26:23;0;0;
77777;PMS5003;66966;-34.746;138.604;2023-04-15T15:28:49;0;0;
77777;PMS5003;66966;-34.746;138.604;2023-04-15T15:31:15;1;1;
77777;PMS5003;66966;-34.746;138.604;2023-04-15T15:33:40;0;0;
77777;PMS5003;66966;-34.746;138.604;2023-04-15T15:36:06;0;0;
77777;PMS5003;66966;-34.746;138.604;2023-04-15T15:38:31;0;0;
77777;PMS5003;66966;-34.746;138.604;2023-04-15T15:40:57;0;0;
77777;PMS5003;66966;-34.746;138.604;2023-04-15T15:43:23;0;0;
77777;PMS5003;66966;-34.746;138.604;2023-04-15T15:45:48;0;0;
77777;PMS5003;66966;-34.746;138.604;2023-04-15T15:48:14;0;0;
77777;PMS5003;66966;-34.746;138.604;2023-04-15T15:50:40;0;0;
77777;PMS5003;66966;-34.746;138.604;2023-04-15T15:53:05;1;0;
77777;PMS5003;66966;-34.746;138.604;2023-04-15T15:55:31;2;1;
77777;PMS5003;66966;-34.746;138.604;2023-04-15T15:57:57;0;0;
77777;PMS5003;66966;-34.746;138.604;2023-04-15T16:00:22;1;0;
77777;PMS5003;66966;-34.746;138.604;2023-04-15T16:02:48;0;0;
77777;PMS5003;66966;-34.746;138.604;2023-04-15T16:05:13;0;0;
77777;PMS5003;66966;-34.746;138.604;2023-04-15T16:07:39;2;0;
77777;PMS5003;66966;-34.746;138.604;2023-04-15T16:10:05;0;0;
77777;PMS5003;66966;-34.746;138.604;2023-04-15T16:12:30;1;1;
77777;PMS5003;66966;-34.746;138.604;2023-04-15T16:14:56;1;0;
77777;PMS5003;66966;-34.746;138.604;2023-04-15T16:17:22;1;0;
77777;PMS5003;66966;-34.746;138.604;2023-04-15T16:19:48;0;0;
77777;PMS5003;66966;-34.746;138.604;2023-04-15T16:22:13;0;0;
77777;PMS5003;66966;-34.746;138.604;2023-04-15T16:24:39;1;0;